sensor_id;sensor_type;location;lat;lon;timestamp;temperature;humidity
3818;DHT22;1924;48.078;11.516;2023-05-10T00:00:55;14.30;99.90
3818;DHT22;1924;48.078;11.516;2023-05-10T00:03:22;14.30;99.90
3818;DHT22;1924;48.078;11.516;2023-05-10T00:05:49;14.20;99.90
3818;DHT22;1924;48.078;11.516;2023-05-10T00:08:15;14.20;99.90
3818;DHT22;1924;48.078;11.516;2023-05-10T00:10:44;14.20;99.90
3818;DHT22;1924;48.078;11.516;2023-05-10T00:13:10;14.30;99.90
3818;DHT22;1924;48.078;11.516;2023-05-10T00:15:37;14.30;99.90
3818;DHT22;1924;48.078;11.516;2023-05-10T00:18:04;14.30;99.90
3818;DHT22;1924;48.078;11.516;2023-05-10T00:20:30;14.20;99.90
3818;DHT22;1924;48.078;11.516;2023-05-10T00:22:57;14.30;99.90
3818;DHT22;1924;48.078;11.516;2023-05-10T00:25:24;14.20;99.90
3818;DHT22;1924;48.078;11.516;2023-05-10T00:27:52;14.20;99.90
3818;DHT22;1924;48.078;11.516;2023-05-10T00:30:20;14.20;99.90
3818;DHT22;1924;48.078;11.516;2023-05-10T00:32:47;14.10;99.90
3818;DHT22;1924;48.078;11.516;2023-05-10T00:35:15;14.20;99.90
3818;DHT22;1924;48.078;11.516;2023-05-10T00:37:42;14.20;99.90
3818;DHT22;1924;48.078;11.516;2023-05-10T00:40:09;14.20;99.90
3818;DHT22;1924;48.078;11.516;2023-05-10T00:42:36;14.20;99.90
3818;DHT22;1924;48.078;11.516;2023-05-10T00:45:05;14.10;99.90
3818;DHT22;1924;48.078;11.516;2023-05-10T00:47:32;14.20;99.90
3818;DHT22;1924;48.078;11.516;2023-05-10T00:49:59;14.20;99.90
3818;DHT22;1924;48.078;11.516;2023-05-10T00:52:26;14.10;99.90
3818;DHT22;1924;48.078;11.516;2023-05-10T00:54:54;14.20;99.90
3818;DHT22;1924;48.078;11.516;2023-05-10T00:57:21;14.20;99.90
3818;DHT22;1924;48.078;11.516;2023-05-10T00:59:48;14.20;99.90
3818;DHT22;1924;48.078;11.516;2023-05-10T01:02:16;14.20;99.90
3818;DHT22;1924;48.078;11.516;2023-05-10T01:04:43;14.10;99.90
3818;DHT22;1924;48.078;11.516;2023-05-10T01:07:10;14.20;99.90
3818;DHT22;1924;48.078;11.516;2023-05-10T01:09:36;14.10;99.90
3818;DHT22;1924;48.078;11.516;2023-05-10T01:12:04;14.10;99.90
3818;DHT22;1924;48.078;11.516;2023-05-10T01:14:32;14.10;99.90
3818;DHT22;1924;48.078;11.516;2023-05-10T01:17:00;14.00;99.90
3818;DHT22;1924;48.078;11.516;2023-05-10T01:19:29;14.00;99.90
3818;DHT22;1924;48.078;11.516;2023-05-10T01:22:09;14.00;99.90
3818;DHT22;1924;48.078;11.516;2023-05-10T01:24:59;14.00;99.90
3818;DHT22;1924;48.078;11.516;2023-05-10T01:28:08;14.00;99.90
3818;DHT22;1924;48.078;11.516;2023-05-10T01:31:18;14.00;99.90
3818;DHT22;1924;48.078;11.516;2023-05-10T01:33:54;14.00;99.90
3818;DHT22;1924;48.078;11.516;2023-05-10T01:36:31;13.90;99.90
3818;DHT22;1924;48.078;11.516;2023-05-10T01:39:02;13.90;99.90
3818;DHT22;1924;48.078;11.516;2023-05-10T01:41:39;13.90;99.90
3818;DHT22;1924;48.078;11.516;2023-05-10T01:44:11;13.90;99.90
3818;DHT22;1924;48.078;11.516;2023-05-10T01:46:41;14.00;99.90
3818;DHT22;1924;48.078;11.516;2023-05-10T01:49:13;13.90;99.90
3818;DHT22;1924;48.078;11.516;2023-05-10T01:51:47;13.90;99.90
3818;DHT22;1924;48.078;11.516;2023-05-10T01:54:18;13.80;99.90
3818;DHT22;1924;48.078;11.516;2023-05-10T01:56:48;13.80;99.90
3818;DHT22;1924;48.078;11.516;2023-05-10T01:59:18;13.80;99.90
3818;DHT22;1924;48.078;11.516;2023-05-10T02:01:46;13.90;99.90
3818;DHT22;1924;48.078;11.516;2023-05-10T02:04:17;13.90;99.90
3818;DHT22;1924;48.078;11.516;2023-05-10T02:06:46;13.80;99.90
3818;DHT22;1924;48.078;11.516;2023-05-10T02:09:14;13.90;99.90
3818;DHT22;1924;48.078;11.516;2023-05-10T02:11:43;13.90;99.90
3818;DHT22;1924;48.078;11.516;2023-05-10T02:14:11;13.80;99.90
3818;DHT22;1924;48.078;11.516;2023-05-10T02:16:39;13.80;99.90
3818;DHT22;1924;48.078;11.516;2023-05-10T02:19:07;13.80;99.90
3818;DHT22;1924;48.078;11.516;2023-05-10T02:21:37;13.80;99.90
3818;DHT22;1924;48.078;11.516;2023-05-10T02:24:06;13.80;99.90
3818;DHT22;1924;48.078;11.516;2023-05-10T02:26:35;13.90;99.90
3818;DHT22;1924;48.078;11.516;2023-05-10T02:29:03;13.90;99.90
3818;DHT22;1924;48.078;11.516;2023-05-10T02:31:31;13.90;99.90
3818;DHT22;1924;48.078;11.516;2023-05-10T02:33:59;13.90;99.90
3818;DHT22;1924;48.078;11.516;2023-05-10T02:36:26;13.80;99.90
3818;DHT22;1924;48.078;11.516;2023-05-10T02:38:55;13.80;99.90
3818;DHT22;1924;48.078;11.516;2023-05-10T02:41:23;13.80;99.90
3818;DHT22;1924;48.078;11.516;2023-05-10T04:00:25;13.60;99.90
3818;DHT22;1924;48.078;11.516;2023-05-10T04:02:52;13.60;99.90
3818;DHT22;1924;48.078;11.516;2023-05-10T04:05:18;13.60;99.90
3818;DHT22;1924;48.078;11.516;2023-05-10T04:07:45;13.70;99.90
3818;DHT22;1924;48.078;11.516;2023-05-10T04:10:14;13.70;99.90
3818;DHT22;1924;48.078;11.516;2023-05-10T04:12:42;13.70;99.90
3818;DHT22;1924;48.078;11.516;2023-05-10T04:15:09;13.70;99.90
3818;DHT22;1924;48.078;11.516;2023-05-10T04:17:37;13.70;99.90
3818;DHT22;1924;48.078;11.516;2023-05-10T04:20:05;13.60;99.90
3818;DHT22;1924;48.078;11.516;2023-05-10T04:22:32;13.70;99.90
3818;DHT22;1924;48.078;11.516;2023-05-10T04:24:58;13.60;99.90
3818;DHT22;1924;48.078;11.516;2023-05-10T04:27:25;13.60;99.90
3818;DHT22;1924;48.078;11.516;2023-05-10T04:29:52;13.60;99.90
3818;DHT22;1924;48.078;11.516;2023-05-10T04:32:19;13.60;99.90
3818;DHT22;1924;48.078;11.516;2023-05-10T04:34:47;13.60;99.90
3818;DHT22;1924;48.078;11.516;2023-05-10T04:37:14;13.70;99.90
3818;DHT22;1924;48.078;11.516;2023-05-10T04:39:41;13.70;99.90
3818;DHT22;1924;48.078;11.516;2023-05-10T04:42:07;13.60;99.90
3818;DHT22;1924;48.078;11.516;2023-05-10T04:44:34;13.60;99.90
3818;DHT22;1924;48.078;11.516;2023-05-10T04:47:01;13.60;99.90
3818;DHT22;1924;48.078;11.516;2023-05-10T04:49:28;13.70;99.90
3818;DHT22;1924;48.078;11.516;2023-05-10T04:51:56;13.60;99.90
3818;DHT22;1924;48.078;11.516;2023-05-10T04:54:23;13.50;99.90
3818;DHT22;1924;48.078;11.516;2023-05-10T04:56:50;13.40;99.90
3818;DHT22;1924;48.078;11.516;2023-05-10T04:59:17;13.40;99.90
3818;DHT22;1924;48.078;11.516;2023-05-10T05:01:44;13.40;99.90
3818;DHT22;1924;48.078;11.516;2023-05-10T05:04:11;13.40;99.90
3818;DHT22;1924;48.078;11.516;2023-05-10T05:06:37;13.50;99.90
3818;DHT22;1924;48.078;11.516;2023-05-10T05:09:05;13.50;99.90
3818;DHT22;1924;48.078;11.516;2023-05-10T05:11:32;13.50;99.90
3818;DHT22;1924;48.078;11.516;2023-05-10T05:13:59;13.60;99.90
3818;DHT22;1924;48.078;11.516;2023-05-10T05:16:26;13.70;99.90
3818;DHT22;1924;48.078;11.516;2023-05-10T05:18:52;13.70;99.90
3818;DHT22;1924;48.078;11.516;2023-05-10T05:21:20;13.70;99.90
3818;DHT22;1924;48.078;11.516;2023-05-10T05:23:47;13.60;99.90
3818;DHT22;1924;48.078;11.516;2023-05-10T05:26:15;13.50;99.90
3818;DHT22;1924;48.078;11.516;2023-05-10T05:28:42;13.40;99.90
3818;DHT22;1924;48.078;11.516;2023-05-10T05:31:09;13.40;99.90
3818;DHT22;1924;48.078;11.516;2023-05-10T05:33:35;13.40;99.90
3818;DHT22;1924;48.078;11.516;2023-05-10T05:36:03;13.20;99.90
3818;DHT22;1924;48.078;11.516;2023-05-10T05:38:30;13.30;99.90
3818;DHT22;1924;48.078;11.516;2023-05-10T05:40:57;13.40;99.90
3818;DHT22;1924;48.078;11.516;2023-05-10T05:43:25;13.30;99.90
3818;DHT22;1924;48.078;11.516;2023-05-10T05:45:52;13.30;99.90
3818;DHT22;1924;48.078;11.516;2023-05-10T05:48:19;13.20;99.90
3818;DHT22;1924;48.078;11.516;2023-05-10T05:50:46;13.10;99.90
3818;DHT22;1924;48.078;11.516;2023-05-10T05:53:12;13.20;99.90
3818;DHT22;1924;48.078;11.516;2023-05-10T05:55:39;13.10;99.90
3818;DHT22;1924;48.078;11.516;2023-05-10T05:58:06;13.10;99.90
3818;DHT22;1924;48.078;11.516;2023-05-10T06:00:34;13.10;99.90
3818;DHT22;1924;48.078;11.516;2023-05-10T06:03:01;13.00;99.90
3818;DHT22;1924;48.078;11.516;2023-05-10T06:05:28;13.00;99.90
3818;DHT22;1924;48.078;11.516;2023-05-10T06:07:55;13.00;99.90
3818;DHT22;1924;48.078;11.516;2023-05-10T06:10:22;13.00;99.90
3818;DHT22;1924;48.078;11.516;2023-05-10T06:12:50;13.10;99.90
3818;DHT22;1924;48.078;11.516;2023-05-10T06:15:18;13.10;99.90
3818;DHT22;1924;48.078;11.516;2023-05-10T06:17:46;13.10;99.90
3818;DHT22;1924;48.078;11.516;2023-05-10T06:20:15;12.90;99.90
3818;DHT22;1924;48.078;11.516;2023-05-10T06:22:42;12.90;99.90
3818;DHT22;1924;48.078;11.516;2023-05-10T06:25:09;12.90;99.90
3818;DHT22;1924;48.078;11.516;2023-05-10T06:27:36;12.90;99.90
3818;DHT22;1924;48.078;11.516;2023-05-10T06:30:04;13.00;99.90
3818;DHT22;1924;48.078;11.516;2023-05-10T06:32:31;13.00;99.90
3818;DHT22;1924;48.078;11.516;2023-05-10T06:34:59;13.00;99.90
3818;DHT22;1924;48.078;11.516;2023-05-10T06:37:26;13.10;99.90
3818;DHT22;1924;48.078;11.516;2023-05-10T06:39:53;13.20;99.90
3818;DHT22;1924;48.078;11.516;2023-05-10T06:42:20;13.20;99.90
3818;DHT22;1924;48.078;11.516;2023-05-10T06:44:46;13.30;99.90
3818;DHT22;1924;48.078;11.516;2023-05-10T06:47:13;13.40;99.90
3818;DHT22;1924;48.078;11.516;2023-05-10T06:49:40;13.50;99.90
3818;DHT22;1924;48.078;11.516;2023-05-10T06:52:08;13.80;99.90
3818;DHT22;1924;48.078;11.516;2023-05-10T06:54:34;14.00;99.90
3818;DHT22;1924;48.078;11.516;2023-05-10T06:57:01;14.20;99.90
3818;DHT22;1924;48.078;11.516;2023-05-10T06:59:29;14.20;99.90
3818;DHT22;1924;48.078;11.516;2023-05-10T07:01:56;14.20;99.90
3818;DHT22;1924;48.078;11.516;2023-05-10T07:04:23;14.20;99.90
3818;DHT22;1924;48.078;11.516;2023-05-10T07:06:50;14.30;99.90
3818;DHT22;1924;48.078;11.516;2023-05-10T07:09:18;14.30;99.90
3818;DHT22;1924;48.078;11.516;2023-05-10T07:11:44;14.40;99.90
3818;DHT22;1924;48.078;11.516;2023-05-10T07:14:11;14.40;99.90
3818;DHT22;1924;48.078;11.516;2023-05-10T07:16:38;14.20;99.90
3818;DHT22;1924;48.078;11.516;2023-05-10T07:19:05;14.10;99.90
3818;DHT22;1924;48.078;11.516;2023-05-10T07:21:31;14.10;99.90
3818;DHT22;1924;48.078;11.516;2023-05-10T07:23:58;14.20;99.90
3818;DHT22;1924;48.078;11.516;2023-05-10T07:26:27;14.10;99.90
3818;DHT22;1924;48.078;11.516;2023-05-10T07:28:54;14.20;99.90
3818;DHT22;1924;48.078;11.516;2023-05-10T07:31:21;14.20;99.90
3818;DHT22;1924;48.078;11.516;2023-05-10T07:33:47;14.10;99.90
3818;DHT22;1924;48.078;11.516;2023-05-10T07:36:14;14.00;99.90
3818;DHT22;1924;48.078;11.516;2023-05-10T07:38:41;14.20;99.90
3818;DHT22;1924;48.078;11.516;2023-05-10T07:41:07;14.30;99.90
3818;DHT22;1924;48.078;11.516;2023-05-10T07:43:35;14.40;99.90
3818;DHT22;1924;48.078;11.516;2023-05-10T07:46:02;14.60;99.90
3818;DHT22;1924;48.078;11.516;2023-05-10T07:48:29;14.70;99.90
3818;DHT22;1924;48.078;11.516;2023-05-10T07:50:56;14.80;99.90
3818;DHT22;1924;48.078;11.516;2023-05-10T07:53:24;14.90;99.90
3818;DHT22;1924;48.078;11.516;2023-05-10T07:55:51;14.80;99.90
3818;DHT22;1924;48.078;11.516;2023-05-10T07:58:20;14.80;99.90
3818;DHT22;1924;48.078;11.516;2023-05-10T08:00:48;15.00;99.90
3818;DHT22;1924;48.078;11.516;2023-05-10T08:03:15;15.00;99.90
3818;DHT22;1924;48.078;11.516;2023-05-10T08:05:41;15.10;99.90
3818;DHT22;1924;48.078;11.516;2023-05-10T08:08:08;15.00;99.90
3818;DHT22;1924;48.078;11.516;2023-05-10T08:10:35;14.70;99.90
3818;DHT22;1924;48.078;11.516;2023-05-10T08:13:02;14.70;99.90
3818;DHT22;1924;48.078;11.516;2023-05-10T08:15:28;14.60;99.90
3818;DHT22;1924;48.078;11.516;2023-05-10T08:17:56;14.60;99.90
3818;DHT22;1924;48.078;11.516;2023-05-10T08:20:23;14.70;99.90
3818;DHT22;1924;48.078;11.516;2023-05-10T08:22:50;15.00;99.90
3818;DHT22;1924;48.078;11.516;2023-05-10T08:25:17;15.00;99.90
3818;DHT22;1924;48.078;11.516;2023-05-10T08:27:44;15.00;99.90
3818;DHT22;1924;48.078;11.516;2023-05-10T08:30:11;15.20;99.90
3818;DHT22;1924;48.078;11.516;2023-05-10T08:32:38;15.30;99.90
3818;DHT22;1924;48.078;11.516;2023-05-10T08:35:07;15.30;99.90
3818;DHT22;1924;48.078;11.516;2023-05-10T08:37:34;15.40;99.90
3818;DHT22;1924;48.078;11.516;2023-05-10T08:40:00;15.70;99.90
3818;DHT22;1924;48.078;11.516;2023-05-10T08:42:30;16.00;99.90
3818;DHT22;1924;48.078;11.516;2023-05-10T08:44:57;16.10;99.90
3818;DHT22;1924;48.078;11.516;2023-05-10T08:47:25;16.00;99.90
3818;DHT22;1924;48.078;11.516;2023-05-10T08:49:54;15.70;99.90
3818;DHT22;1924;48.078;11.516;2023-05-10T08:52:26;15.60;99.90
3818;DHT22;1924;48.078;11.516;2023-05-10T08:54:54;15.50;99.90
3818;DHT22;1924;48.078;11.516;2023-05-10T08:57:21;15.40;99.90
3818;DHT22;1924;48.078;11.516;2023-05-10T08:59:48;15.20;99.90
3818;DHT22;1924;48.078;11.516;2023-05-10T09:02:15;15.00;99.90
3818;DHT22;1924;48.078;11.516;2023-05-10T09:04:43;14.90;99.90
3818;DHT22;1924;48.078;11.516;2023-05-10T09:07:10;15.00;99.90
3818;DHT22;1924;48.078;11.516;2023-05-10T09:09:39;15.10;99.90
3818;DHT22;1924;48.078;11.516;2023-05-10T09:12:08;15.40;99.90
3818;DHT22;1924;48.078;11.516;2023-05-10T09:14:38;15.40;99.90
3818;DHT22;1924;48.078;11.516;2023-05-10T09:17:05;15.40;99.90
3818;DHT22;1924;48.078;11.516;2023-05-10T09:19:32;15.20;99.90
3818;DHT22;1924;48.078;11.516;2023-05-10T09:21:59;15.10;99.90
3818;DHT22;1924;48.078;11.516;2023-05-10T09:24:30;14.90;99.90
3818;DHT22;1924;48.078;11.516;2023-05-10T09:26:58;14.70;99.90
3818;DHT22;1924;48.078;11.516;2023-05-10T09:29:26;14.70;99.90
3818;DHT22;1924;48.078;11.516;2023-05-10T09:31:53;14.70;99.90
3818;DHT22;1924;48.078;11.516;2023-05-10T09:34:28;14.60;99.90
3818;DHT22;1924;48.078;11.516;2023-05-10T09:36:56;14.80;99.90
3818;DHT22;1924;48.078;11.516;2023-05-10T09:39:33;14.80;99.90
3818;DHT22;1924;48.078;11.516;2023-05-10T09:42:03;15.20;99.90
3818;DHT22;1924;48.078;11.516;2023-05-10T09:44:31;15.60;99.90
3818;DHT22;1924;48.078;11.516;2023-05-10T09:46:58;15.70;99.90
3818;DHT22;1924;48.078;11.516;2023-05-10T09:49:25;15.50;99.90
3818;DHT22;1924;48.078;11.516;2023-05-10T09:52:01;15.50;99.90
3818;DHT22;1924;48.078;11.516;2023-05-10T09:54:29;15.50;99.90
3818;DHT22;1924;48.078;11.516;2023-05-10T09:56:56;15.50;99.90
3818;DHT22;1924;48.078;11.516;2023-05-10T09:59:26;15.40;99.90
3818;DHT22;1924;48.078;11.516;2023-05-10T10:01:55;15.50;99.90
3818;DHT22;1924;48.078;11.516;2023-05-10T10:04:22;15.60;99.90
3818;DHT22;1924;48.078;11.516;2023-05-10T10:06:59;15.50;99.90
3818;DHT22;1924;48.078;11.516;2023-05-10T10:09:26;15.60;99.90
3818;DHT22;1924;48.078;11.516;2023-05-10T10:11:54;15.50;99.90
3818;DHT22;1924;48.078;11.516;2023-05-10T10:14:22;15.60;99.90
3818;DHT22;1924;48.078;11.516;2023-05-10T10:16:51;15.50;99.90
3818;DHT22;1924;48.078;11.516;2023-05-10T10:19:19;15.20;99.90
3818;DHT22;1924;48.078;11.516;2023-05-10T10:21:46;15.10;99.90
3818;DHT22;1924;48.078;11.516;2023-05-10T10:24:13;15.10;99.90
3818;DHT22;1924;48.078;11.516;2023-05-10T10:26:42;15.40;99.90
3818;DHT22;1924;48.078;11.516;2023-05-10T10:29:19;15.60;99.90
3818;DHT22;1924;48.078;11.516;2023-05-10T10:31:55;16.10;99.90
3818;DHT22;1924;48.078;11.516;2023-05-10T10:34:29;16.40;99.90
3818;DHT22;1924;48.078;11.516;2023-05-10T10:36:58;16.70;99.90
3818;DHT22;1924;48.078;11.516;2023-05-10T10:39:31;17.00;99.90
3818;DHT22;1924;48.078;11.516;2023-05-10T10:41:58;17.10;99.90
3818;DHT22;1924;48.078;11.516;2023-05-10T10:44:33;17.00;99.90
3818;DHT22;1924;48.078;11.516;2023-05-10T10:47:22;16.90;99.90
3818;DHT22;1924;48.078;11.516;2023-05-10T10:50:05;16.80;99.90
3818;DHT22;1924;48.078;11.516;2023-05-10T10:52:33;16.60;99.90
3818;DHT22;1924;48.078;11.516;2023-05-10T10:55:03;16.30;99.90
3818;DHT22;1924;48.078;11.516;2023-05-10T10:57:35;16.10;99.90
3818;DHT22;1924;48.078;11.516;2023-05-10T11:00:22;15.90;99.90
3818;DHT22;1924;48.078;11.516;2023-05-10T11:02:52;15.70;99.90
3818;DHT22;1924;48.078;11.516;2023-05-10T11:05:37;15.50;99.90
3818;DHT22;1924;48.078;11.516;2023-05-10T11:08:16;15.40;99.90
3818;DHT22;1924;48.078;11.516;2023-05-10T11:11:02;15.30;99.90
3818;DHT22;1924;48.078;11.516;2023-05-10T11:13:31;14.90;99.90
3818;DHT22;1924;48.078;11.516;2023-05-10T11:16:09;14.40;99.90
3818;DHT22;1924;48.078;11.516;2023-05-10T11:18:52;14.30;99.90
3818;DHT22;1924;48.078;11.516;2023-05-10T11:21:20;14.40;99.90
3818;DHT22;1924;48.078;11.516;2023-05-10T11:23:52;14.40;99.90
3818;DHT22;1924;48.078;11.516;2023-05-10T11:26:24;14.40;99.90
3818;DHT22;1924;48.078;11.516;2023-05-10T11:28:55;14.40;99.90
3818;DHT22;1924;48.078;11.516;2023-05-10T11:31:22;14.10;99.90
3818;DHT22;1924;48.078;11.516;2023-05-10T11:33:55;14.00;99.90
3818;DHT22;1924;48.078;11.516;2023-05-10T11:36:25;13.90;99.90
3818;DHT22;1924;48.078;11.516;2023-05-10T11:38:55;13.90;99.90
3818;DHT22;1924;48.078;11.516;2023-05-10T11:41:24;13.80;99.90
3818;DHT22;1924;48.078;11.516;2023-05-10T11:43:54;13.70;99.90
3818;DHT22;1924;48.078;11.516;2023-05-10T11:46:21;13.60;99.90
3818;DHT22;1924;48.078;11.516;2023-05-10T11:48:51;13.70;99.90
3818;DHT22;1924;48.078;11.516;2023-05-10T11:51:24;13.60;99.90
3818;DHT22;1924;48.078;11.516;2023-05-10T11:53:54;13.60;99.90
3818;DHT22;1924;48.078;11.516;2023-05-10T11:56:23;13.60;99.90
3818;DHT22;1924;48.078;11.516;2023-05-10T11:58:54;13.20;99.90
3818;DHT22;1924;48.078;11.516;2023-05-10T12:01:22;13.30;99.90
3818;DHT22;1924;48.078;11.516;2023-05-10T12:03:51;13.50;99.90
3818;DHT22;1924;48.078;11.516;2023-05-10T12:06:25;13.50;99.90
3818;DHT22;1924;48.078;11.516;2023-05-10T12:08:53;13.50;99.90
3818;DHT22;1924;48.078;11.516;2023-05-10T12:11:25;13.40;99.90
3818;DHT22;1924;48.078;11.516;2023-05-10T12:13:53;13.40;99.90
3818;DHT22;1924;48.078;11.516;2023-05-10T12:16:24;13.40;99.90
3818;DHT22;1924;48.078;11.516;2023-05-10T12:18:53;13.50;99.90
3818;DHT22;1924;48.078;11.516;2023-05-10T12:21:21;13.60;99.90
3818;DHT22;1924;48.078;11.516;2023-05-10T12:23:50;13.70;99.90
3818;DHT22;1924;48.078;11.516;2023-05-10T12:26:17;13.80;99.90
3818;DHT22;1924;48.078;11.516;2023-05-10T12:28:44;13.80;99.90
3818;DHT22;1924;48.078;11.516;2023-05-10T12:31:11;13.80;99.90
3818;DHT22;1924;48.078;11.516;2023-05-10T12:33:39;13.80;99.90
3818;DHT22;1924;48.078;11.516;2023-05-10T12:36:08;13.90;99.90
3818;DHT22;1924;48.078;11.516;2023-05-10T12:38:38;13.90;99.90
3818;DHT22;1924;48.078;11.516;2023-05-10T12:41:07;13.90;99.90
3818;DHT22;1924;48.078;11.516;2023-05-10T12:43:34;14.00;99.90
3818;DHT22;1924;48.078;11.516;2023-05-10T12:46:05;13.90;99.90
3818;DHT22;1924;48.078;11.516;2023-05-10T12:48:32;13.90;99.90
3818;DHT22;1924;48.078;11.516;2023-05-10T12:50:59;13.90;99.90
3818;DHT22;1924;48.078;11.516;2023-05-10T12:53:26;13.90;99.90
3818;DHT22;1924;48.078;11.516;2023-05-10T12:55:54;13.80;99.90
3818;DHT22;1924;48.078;11.516;2023-05-10T12:58:21;13.70;99.90
3818;DHT22;1924;48.078;11.516;2023-05-10T13:00:48;13.70;99.90
3818;DHT22;1924;48.078;11.516;2023-05-10T13:03:17;13.80;99.90
3818;DHT22;1924;48.078;11.516;2023-05-10T13:05:43;13.80;99.90
3818;DHT22;1924;48.078;11.516;2023-05-10T13:08:10;13.90;99.90
3818;DHT22;1924;48.078;11.516;2023-05-10T13:10:37;14.00;99.90
3818;DHT22;1924;48.078;11.516;2023-05-10T13:13:05;14.00;99.90
3818;DHT22;1924;48.078;11.516;2023-05-10T13:15:33;14.00;99.90
3818;DHT22;1924;48.078;11.516;2023-05-10T13:18:00;14.00;99.90
3818;DHT22;1924;48.078;11.516;2023-05-10T13:20:26;13.90;99.90
3818;DHT22;1924;48.078;11.516;2023-05-10T13:22:53;13.90;99.90
3818;DHT22;1924;48.078;11.516;2023-05-10T13:25:20;13.90;99.90
3818;DHT22;1924;48.078;11.516;2023-05-10T13:27:47;13.90;99.90
3818;DHT22;1924;48.078;11.516;2023-05-10T13:30:15;13.80;99.90
3818;DHT22;1924;48.078;11.516;2023-05-10T13:32:42;13.80;99.90
3818;DHT22;1924;48.078;11.516;2023-05-10T13:35:09;13.80;99.90
3818;DHT22;1924;48.078;11.516;2023-05-10T13:37:35;13.80;99.90
3818;DHT22;1924;48.078;11.516;2023-05-10T13:40:03;13.90;99.90
3818;DHT22;1924;48.078;11.516;2023-05-10T13:42:30;13.80;99.90
3818;DHT22;1924;48.078;11.516;2023-05-10T13:44:59;13.90;99.90
3818;DHT22;1924;48.078;11.516;2023-05-10T13:47:27;13.90;99.90
3818;DHT22;1924;48.078;11.516;2023-05-10T13:49:54;14.00;99.90
3818;DHT22;1924;48.078;11.516;2023-05-10T13:52:21;13.90;99.90
3818;DHT22;1924;48.078;11.516;2023-05-10T13:54:48;13.90;99.90
3818;DHT22;1924;48.078;11.516;2023-05-10T13:57:16;13.90;99.90
3818;DHT22;1924;48.078;11.516;2023-05-10T13:59:43;13.90;99.90
3818;DHT22;1924;48.078;11.516;2023-05-10T14:02:09;13.90;99.90
3818;DHT22;1924;48.078;11.516;2023-05-10T14:04:39;13.80;99.90
3818;DHT22;1924;48.078;11.516;2023-05-10T14:07:06;13.80;99.90
3818;DHT22;1924;48.078;11.516;2023-05-10T14:09:33;13.80;99.90
3818;DHT22;1924;48.078;11.516;2023-05-10T14:12:00;14.00;99.90
3818;DHT22;1924;48.078;11.516;2023-05-10T14:14:27;13.90;99.90
3818;DHT22;1924;48.078;11.516;2023-05-10T14:16:54;13.80;99.90
3818;DHT22;1924;48.078;11.516;2023-05-10T14:19:21;13.80;99.90
3818;DHT22;1924;48.078;11.516;2023-05-10T14:21:49;13.70;99.90
3818;DHT22;1924;48.078;11.516;2023-05-10T14:24:17;13.60;99.90
3818;DHT22;1924;48.078;11.516;2023-05-10T14:26:44;13.60;99.90
3818;DHT22;1924;48.078;11.516;2023-05-10T14:29:10;13.60;99.90
3818;DHT22;1924;48.078;11.516;2023-05-10T14:31:37;13.70;99.90
3818;DHT22;1924;48.078;11.516;2023-05-10T14:34:04;13.60;99.90
3818;DHT22;1924;48.078;11.516;2023-05-10T14:36:33;13.60;99.90
3818;DHT22;1924;48.078;11.516;2023-05-10T14:39:01;13.50;99.90
3818;DHT22;1924;48.078;11.516;2023-05-10T14:41:28;13.40;99.90
3818;DHT22;1924;48.078;11.516;2023-05-10T14:43:55;13.20;99.90
3818;DHT22;1924;48.078;11.516;2023-05-10T14:46:22;13.30;99.90
3818;DHT22;1924;48.078;11.516;2023-05-10T14:48:49;13.50;99.90
3818;DHT22;1924;48.078;11.516;2023-05-10T14:51:16;13.40;99.90
3818;DHT22;1924;48.078;11.516;2023-05-10T14:53:44;13.40;99.90
3818;DHT22;1924;48.078;11.516;2023-05-10T14:56:12;13.30;99.90
3818;DHT22;1924;48.078;11.516;2023-05-10T14:58:39;13.40;99.90
3818;DHT22;1924;48.078;11.516;2023-05-10T15:01:05;13.30;99.90
3818;DHT22;1924;48.078;11.516;2023-05-10T15:03:32;13.30;99.90
3818;DHT22;1924;48.078;11.516;2023-05-10T15:05:59;13.30;99.90
3818;DHT22;1924;48.078;11.516;2023-05-10T15:08:26;13.30;99.90
3818;DHT22;1924;48.078;11.516;2023-05-10T15:10:53;13.30;99.90
3818;DHT22;1924;48.078;11.516;2023-05-10T15:13:22;13.30;99.90
3818;DHT22;1924;48.078;11.516;2023-05-10T15:15:49;13.20;99.90
3818;DHT22;1924;48.078;11.516;2023-05-10T15:18:16;13.30;99.90
3818;DHT22;1924;48.078;11.516;2023-05-10T15:20:42;13.40;99.90
3818;DHT22;1924;48.078;11.516;2023-05-10T15:23:09;13.30;99.90
3818;DHT22;1924;48.078;11.516;2023-05-10T15:25:36;13.30;99.90
3818;DHT22;1924;48.078;11.516;2023-05-10T15:28:04;13.30;99.90
3818;DHT22;1924;48.078;11.516;2023-05-10T15:30:32;13.20;99.90
3818;DHT22;1924;48.078;11.516;2023-05-10T15:32:58;13.10;99.90
3818;DHT22;1924;48.078;11.516;2023-05-10T15:35:25;13.20;99.90
3818;DHT22;1924;48.078;11.516;2023-05-10T15:37:52;13.00;99.90
3818;DHT22;1924;48.078;11.516;2023-05-10T15:40:19;13.00;99.90
3818;DHT22;1924;48.078;11.516;2023-05-10T15:42:47;13.00;99.90
3818;DHT22;1924;48.078;11.516;2023-05-10T15:45:14;13.00;99.90
3818;DHT22;1924;48.078;11.516;2023-05-10T15:47:43;13.00;99.90
3818;DHT22;1924;48.078;11.516;2023-05-10T15:50:10;13.00;99.90
3818;DHT22;1924;48.078;11.516;2023-05-10T15:52:37;13.00;99.90
3818;DHT22;1924;48.078;11.516;2023-05-10T15:55:05;13.00;99.90
3818;DHT22;1924;48.078;11.516;2023-05-10T15:57:37;13.00;99.90
3818;DHT22;1924;48.078;11.516;2023-05-10T16:00:05;12.80;99.90
3818;DHT22;1924;48.078;11.516;2023-05-10T16:02:32;12.80;99.90
3818;DHT22;1924;48.078;11.516;2023-05-10T16:05:00;12.80;99.90
3818;DHT22;1924;48.078;11.516;2023-05-10T16:07:27;12.80;99.90
3818;DHT22;1924;48.078;11.516;2023-05-10T16:09:54;12.80;99.90
3818;DHT22;1924;48.078;11.516;2023-05-10T16:12:21;12.80;99.90
3818;DHT22;1924;48.078;11.516;2023-05-10T16:14:47;12.80;99.90
3818;DHT22;1924;48.078;11.516;2023-05-10T16:17:14;12.80;99.90
3818;DHT22;1924;48.078;11.516;2023-05-10T16:19:41;12.80;99.90
3818;DHT22;1924;48.078;11.516;2023-05-10T16:22:09;12.80;99.90
3818;DHT22;1924;48.078;11.516;2023-05-10T16:24:36;12.80;99.90
3818;DHT22;1924;48.078;11.516;2023-05-10T16:27:02;12.80;99.90
3818;DHT22;1924;48.078;11.516;2023-05-10T16:29:29;12.80;99.90
3818;DHT22;1924;48.078;11.516;2023-05-10T16:31:56;12.80;99.90
3818;DHT22;1924;48.078;11.516;2023-05-10T16:34:23;12.70;99.90
3818;DHT22;1924;48.078;11.516;2023-05-10T16:36:50;12.60;99.90
3818;DHT22;1924;48.078;11.516;2023-05-10T16:39:18;12.60;99.90
3818;DHT22;1924;48.078;11.516;2023-05-10T16:41:45;12.50;99.90
3818;DHT22;1924;48.078;11.516;2023-05-10T16:44:11;12.60;99.90
3818;DHT22;1924;48.078;11.516;2023-05-10T16:46:38;12.60;99.90
3818;DHT22;1924;48.078;11.516;2023-05-10T16:49:05;12.70;99.90
3818;DHT22;1924;48.078;11.516;2023-05-10T16:51:33;12.80;99.90
3818;DHT22;1924;48.078;11.516;2023-05-10T16:54:00;12.80;99.90
3818;DHT22;1924;48.078;11.516;2023-05-10T16:56:28;12.80;99.90
3818;DHT22;1924;48.078;11.516;2023-05-10T16:58:54;12.80;99.90
3818;DHT22;1924;48.078;11.516;2023-05-10T17:01:21;12.70;99.90
3818;DHT22;1924;48.078;11.516;2023-05-10T17:03:48;12.70;99.90
3818;DHT22;1924;48.078;11.516;2023-05-10T17:06:21;12.60;99.90
3818;DHT22;1924;48.078;11.516;2023-05-10T17:08:48;12.40;99.90